createdAt,value
2018-09-22T00:00:09.038Z,12.60
2018-09-22T00:02:37.470Z,12.60
2018-09-22T00:05:06.038Z,12.60
2018-09-22T00:07:34.510Z,12.60
2018-09-22T00:10:02.959Z,12.50
2018-09-22T00:12:31.428Z,12.50
2018-09-22T00:14:59.913Z,12.50
2018-09-22T00:17:28.436Z,12.50
2018-09-22T00:19:56.937Z,12.50
2018-09-22T00:22:25.388Z,12.50
2018-09-22T00:24:53.851Z,12.50
2018-09-22T00:27:22.376Z,12.50
2018-09-22T00:29:50.736Z,12.50
2018-09-22T00:32:19.204Z,12.50
2018-09-22T00:34:47.733Z,12.50
2018-09-22T00:37:16.181Z,12.40
2018-09-22T00:39:44.732Z,12.40
2018-09-22T00:42:13.189Z,12.30
2018-09-22T00:44:41.685Z,12.20
2018-09-22T00:47:10.127Z,12.20
2018-09-22T00:49:38.604Z,12.10
2018-09-22T00:52:07.064Z,12.10
2018-09-22T00:54:35.752Z,12.00
2018-09-22T00:57:04.176Z,12.00
2018-09-22T00:59:32.682Z,11.90
2018-09-22T01:02:01.128Z,11.90
2018-09-22T01:04:29.581Z,11.90
2018-09-22T01:06:58.084Z,11.90
2018-09-22T01:09:26.520Z,11.90
2018-09-22T01:11:54.976Z,11.80
2018-09-22T01:14:23.469Z,11.80
2018-09-22T01:16:51.944Z,11.70
2018-09-22T01:19:20.372Z,11.70
2018-09-22T01:21:48.817Z,11.70
2018-09-22T01:24:17.278Z,11.70
2018-09-22T01:26:45.775Z,11.60
2018-09-22T01:29:15.478Z,11.60
2018-09-22T01:31:44.718Z,11.60
2018-09-22T01:34:13.266Z,11.60
2018-09-22T01:36:42.525Z,11.60
2018-09-22T01:39:12.028Z,11.50
2018-09-22T01:41:41.207Z,11.50
2018-09-22T01:44:09.755Z,11.50
2018-09-22T01:46:38.269Z,11.60
2018-09-22T01:49:06.696Z,11.60
2018-09-22T01:51:35.211Z,11.70
2018-09-22T01:54:03.739Z,11.70
2018-09-22T01:56:32.194Z,11.70
2018-09-22T01:59:00.666Z,11.70
2018-09-22T02:01:29.120Z,11.70
2018-09-22T02:03:57.558Z,11.70
2018-09-22T02:06:26.084Z,11.70
2018-09-22T02:08:54.593Z,11.70
2018-09-22T02:11:23.097Z,11.70
2018-09-22T02:13:51.557Z,11.70
2018-09-22T02:16:20.023Z,11.70
2018-09-22T02:18:48.513Z,11.70
2018-09-22T02:21:16.981Z,11.80
2018-09-22T02:23:45.485Z,11.70
2018-09-22T02:26:13.951Z,11.70
2018-09-22T02:28:42.399Z,11.70
2018-09-22T02:31:10.908Z,11.70
2018-09-22T02:33:39.424Z,11.70
2018-09-22T02:36:07.971Z,11.70
2018-09-22T02:38:36.638Z,11.70
2018-09-22T02:41:05.081Z,11.70
2018-09-22T02:43:33.562Z,11.70
2018-09-22T02:46:02.024Z,11.70
2018-09-22T02:48:30.518Z,11.70
2018-09-22T02:50:58.952Z,11.60
2018-09-22T02:53:27.510Z,11.60
2018-09-22T02:55:55.992Z,11.50
2018-09-22T02:58:24.437Z,11.50
2018-09-22T03:00:52.966Z,11.50
2018-09-22T03:03:21.465Z,11.40
2018-09-22T03:05:49.928Z,11.40
2018-09-22T03:08:18.435Z,11.30
2018-09-22T03:10:46.934Z,11.30
2018-09-22T03:13:15.775Z,11.20
2018-09-22T03:15:44.262Z,11.10
2018-09-22T03:18:12.850Z,11.10
2018-09-22T03:20:41.354Z,11.10
2018-09-22T03:23:09.859Z,11.10
2018-09-22T03:25:38.316Z,11.10
2018-09-22T03:28:06.816Z,11.10
2018-09-22T03:30:35.448Z,11.00
2018-09-22T03:33:03.926Z,11.00
2018-09-22T03:35:32.410Z,11.00
2018-09-22T03:38:00.833Z,11.00
2018-09-22T03:40:29.277Z,11.00
2018-09-22T03:42:57.710Z,11.00
2018-09-22T03:45:26.165Z,10.90
2018-09-22T03:47:54.599Z,11.00
2018-09-22T03:50:23.009Z,10.90
2018-09-22T03:52:51.537Z,10.90
2018-09-22T03:55:19.962Z,10.90
2018-09-22T03:57:48.481Z,10.90
2018-09-22T04:00:16.955Z,10.90
2018-09-22T04:02:45.422Z,11.00
2018-09-22T04:05:13.977Z,11.00
2018-09-22T04:07:42.535Z,11.00
2018-09-22T04:10:11.004Z,11.00
2018-09-22T04:12:39.511Z,11.10
2018-09-22T04:15:07.939Z,11.10
2018-09-22T04:17:36.404Z,11.10
2018-09-22T04:20:04.880Z,11.10
2018-09-22T04:22:33.376Z,11.10
2018-09-22T04:25:01.824Z,11.10
2018-09-22T04:27:30.254Z,11.10
2018-09-22T04:29:58.684Z,11.10
2018-09-22T04:32:27.123Z,11.10
2018-09-22T04:34:55.628Z,11.10
2018-09-22T04:37:24.159Z,11.10
2018-09-22T04:39:52.655Z,11.10
2018-09-22T04:42:21.174Z,11.10
2018-09-22T04:44:49.674Z,11.10
2018-09-22T04:47:18.158Z,11.00
2018-09-22T04:49:46.660Z,11.00
2018-09-22T04:52:15.092Z,11.00
2018-09-22T04:54:43.542Z,11.00
2018-09-22T04:57:12.044Z,11.10
2018-09-22T04:59:40.582Z,11.10
2018-09-22T05:02:09.377Z,11.10
2018-09-22T05:04:38.365Z,11.10
2018-09-22T05:07:07.062Z,11.10
2018-09-22T05:09:35.890Z,11.10
2018-09-22T05:12:04.357Z,11.10
2018-09-22T05:14:32.828Z,11.10
2018-09-22T05:17:01.389Z,11.10
2018-09-22T05:19:30.165Z,11.20
2018-09-22T05:21:58.927Z,11.20
2018-09-22T05:24:27.506Z,11.20
2018-09-22T05:26:56.156Z,11.20
2018-09-22T05:29:24.754Z,11.20
2018-09-22T05:31:53.319Z,11.30
2018-09-22T05:34:21.837Z,11.30
2018-09-22T05:36:50.339Z,11.20
2018-09-22T05:39:18.839Z,11.30
2018-09-22T05:41:47.382Z,11.20
2018-09-22T05:44:15.857Z,11.20
2018-09-22T05:46:44.381Z,11.20
2018-09-22T05:49:13.067Z,11.30
2018-09-22T05:51:41.513Z,11.30
2018-09-22T05:54:10.079Z,11.30
2018-09-22T05:56:38.976Z,11.40
2018-09-22T05:59:07.527Z,11.40
2018-09-22T06:01:36.132Z,11.50
2018-09-22T06:04:04.633Z,11.60
2018-09-22T06:06:33.212Z,11.60
2018-09-22T06:09:02.428Z,11.70
2018-09-22T06:11:30.995Z,11.70
2018-09-22T06:13:59.629Z,11.80
2018-09-22T06:16:28.067Z,11.80
2018-09-22T06:18:56.546Z,11.80
2018-09-22T06:21:25.076Z,11.90
2018-09-22T06:23:59.276Z,11.90
2018-09-22T06:26:27.770Z,12.00
2018-09-22T06:28:56.359Z,12.10
2018-09-22T06:31:24.846Z,12.20
2018-09-22T06:33:53.294Z,12.30
2018-09-22T06:36:22.094Z,12.50
2018-09-22T06:38:50.796Z,12.60
2018-09-22T06:41:19.357Z,12.70
2018-09-22T06:43:48.088Z,12.70
2018-09-22T06:46:16.557Z,12.80
2018-09-22T06:48:45.218Z,12.80
2018-09-22T06:51:14.014Z,12.80
2018-09-22T06:53:42.599Z,12.90
2018-09-22T06:56:11.142Z,12.90
2018-09-22T06:58:39.693Z,13.00
2018-09-22T07:01:08.317Z,12.90
2018-09-22T07:03:36.914Z,12.90
2018-09-22T07:06:05.480Z,12.90
2018-09-22T07:08:33.993Z,12.90
2018-09-22T07:11:02.977Z,12.80
2018-09-22T07:13:31.485Z,12.90
2018-09-22T07:16:00.041Z,12.90
2018-09-22T07:18:28.703Z,13.10
2018-09-22T07:21:02.743Z,13.20
2018-09-22T07:23:31.265Z,13.40
2018-09-22T07:25:59.812Z,13.70
2018-09-22T07:28:28.435Z,13.80
2018-09-22T07:30:57.425Z,13.80
2018-09-22T07:33:25.825Z,13.90
2018-09-22T07:35:54.413Z,13.90
2018-09-22T07:38:22.857Z,13.90
2018-09-22T07:40:51.403Z,13.80
2018-09-22T07:43:20.158Z,13.70
2018-09-22T07:45:48.781Z,13.80
2018-09-22T07:48:17.391Z,13.90
2018-09-22T07:50:45.887Z,13.70
2018-09-22T07:53:14.486Z,13.70
2018-09-22T07:55:43.019Z,13.60
2018-09-22T07:58:11.564Z,13.60
2018-09-22T08:00:40.101Z,13.70
2018-09-22T08:03:08.699Z,13.90
2018-09-22T08:05:37.141Z,14.00
2018-09-22T08:08:05.588Z,14.00
2018-09-22T08:10:34.261Z,14.00
2018-09-22T08:13:02.821Z,14.20
2018-09-22T08:15:31.281Z,14.50
2018-09-22T08:17:59.736Z,14.60
2018-09-22T08:20:28.182Z,14.70
2018-09-22T08:22:56.654Z,14.90
2018-09-22T08:25:25.128Z,15.40
2018-09-22T08:27:53.631Z,15.60
2018-09-22T08:30:22.156Z,15.50
2018-09-22T08:32:51.111Z,15.30
2018-09-22T08:35:19.563Z,15.10
2018-09-22T08:37:48.116Z,15.00
2018-09-22T08:40:17.239Z,14.90
2018-09-22T08:42:45.773Z,14.90
2018-09-22T08:45:14.236Z,15.00
2018-09-22T08:47:42.654Z,15.10
2018-09-22T08:50:11.310Z,15.10
2018-09-22T08:52:39.954Z,15.40
2018-09-22T08:55:08.457Z,15.50
2018-09-22T08:57:37.050Z,15.60
2018-09-22T09:00:05.748Z,15.80
2018-09-22T09:02:34.213Z,15.80
2018-09-22T09:05:02.732Z,15.90
2018-09-22T09:07:31.182Z,15.90
2018-09-22T09:09:59.722Z,15.80
2018-09-22T09:12:28.253Z,15.90
2018-09-22T09:14:56.720Z,15.80
2018-09-22T09:17:26.088Z,15.80
2018-09-22T09:19:54.770Z,15.80
2018-09-22T09:22:23.235Z,16.00
2018-09-22T09:24:51.727Z,16.10
2018-09-22T09:27:20.394Z,16.20
2018-09-22T09:29:49.289Z,16.30
2018-09-22T09:32:18.281Z,16.30
2018-09-22T09:34:47.845Z,16.00
2018-09-22T09:37:16.351Z,15.90
2018-09-22T09:39:44.949Z,15.90
2018-09-22T09:42:13.501Z,15.60
2018-09-22T09:44:41.986Z,15.60
2018-09-22T09:47:10.591Z,15.70
2018-09-22T09:49:39.230Z,15.60
2018-09-22T09:52:08.459Z,15.50
2018-09-22T09:54:37.152Z,15.30
2018-09-22T09:57:05.658Z,15.40
2018-09-22T09:59:34.497Z,15.30
2018-09-22T10:02:03.078Z,15.10
2018-09-22T10:04:31.587Z,14.90
2018-09-22T10:07:00.048Z,14.80
2018-09-22T10:09:28.558Z,14.90
2018-09-22T10:11:57.035Z,15.00
2018-09-22T10:14:25.522Z,15.10
2018-09-22T10:16:54.026Z,15.30
2018-09-22T10:19:22.620Z,15.50
2018-09-22T10:21:51.298Z,15.80
2018-09-22T10:24:20.027Z,16.00
2018-09-22T10:26:48.625Z,16.30
2018-09-22T10:29:17.201Z,16.40
2018-09-22T10:31:45.828Z,16.70
2018-09-22T10:34:14.300Z,17.00
2018-09-22T10:36:42.947Z,17.40
2018-09-22T10:39:11.429Z,17.70
2018-09-22T10:41:39.901Z,17.70
2018-09-22T10:44:08.430Z,17.70
2018-09-22T10:46:36.881Z,17.90
2018-09-22T10:49:05.338Z,18.40
2018-09-22T10:51:33.795Z,18.20
2018-09-22T10:54:02.871Z,17.80
2018-09-22T10:56:31.392Z,17.20
2018-09-22T10:58:59.897Z,17.00
2018-09-22T11:01:29.456Z,16.90
2018-09-22T11:03:58.050Z,16.90
2018-09-22T11:06:26.547Z,16.60
2018-09-22T11:08:55.035Z,16.40
2018-09-22T11:11:23.541Z,16.30
2018-09-22T11:13:51.991Z,16.20
2018-09-22T11:16:20.507Z,16.30
2018-09-22T11:18:48.999Z,16.30
2018-09-22T11:21:17.465Z,16.10
2018-09-22T11:23:45.913Z,15.90
2018-09-22T11:26:14.405Z,15.90
2018-09-22T11:28:42.855Z,15.90
2018-09-22T11:31:11.319Z,15.80
2018-09-22T11:33:39.765Z,15.70
2018-09-22T11:36:08.245Z,15.60
2018-09-22T11:38:36.720Z,15.50
2018-09-22T11:41:05.240Z,15.60
2018-09-22T11:43:33.748Z,15.80
2018-09-22T11:46:02.236Z,15.80
2018-09-22T11:48:30.684Z,15.60
2018-09-22T11:50:59.179Z,15.40
2018-09-22T11:53:27.634Z,15.10
2018-09-22T11:55:56.144Z,14.90
2018-09-22T11:58:24.576Z,15.00
2018-09-22T12:00:53.121Z,15.00
2018-09-22T12:03:21.575Z,15.00
2018-09-22T12:05:50.088Z,15.00
2018-09-22T12:08:18.680Z,15.00
2018-09-22T12:10:47.189Z,15.00
2018-09-22T12:13:15.670Z,14.90
2018-09-22T12:15:44.125Z,14.90
2018-09-22T12:18:12.610Z,14.90
2018-09-22T12:20:41.544Z,14.90
2018-09-22T12:23:10.201Z,15.00
2018-09-22T12:25:38.665Z,14.90
2018-09-22T12:28:07.144Z,14.80
2018-09-22T12:30:35.638Z,14.80
2018-09-22T12:33:04.192Z,14.80
2018-09-22T12:35:32.814Z,14.70
2018-09-22T12:38:01.396Z,14.70
2018-09-22T12:40:32.381Z,14.60
2018-09-22T12:43:01.014Z,14.60
2018-09-22T12:45:29.746Z,14.50
2018-09-22T12:47:58.223Z,14.50
2018-09-22T12:50:26.854Z,14.50
2018-09-22T12:52:55.389Z,14.50
2018-09-22T12:55:23.949Z,14.60
2018-09-22T12:57:52.429Z,14.80
2018-09-22T13:00:20.919Z,15.10
2018-09-22T13:02:49.436Z,15.40
2018-09-22T13:05:18.262Z,15.60
2018-09-22T13:07:47.217Z,16.00
2018-09-22T13:10:15.731Z,16.40
2018-09-22T13:12:44.287Z,16.50
2018-09-22T13:15:12.810Z,16.40
2018-09-22T13:17:41.347Z,16.10
2018-09-22T13:20:09.868Z,16.00
2018-09-22T13:22:38.511Z,15.90
2018-09-22T13:25:07.114Z,16.00
2018-09-22T13:27:35.679Z,16.00
2018-09-22T13:30:04.214Z,15.90
2018-09-22T13:32:32.740Z,15.80
2018-09-22T13:35:01.243Z,15.90
2018-09-22T13:37:29.827Z,15.90
2018-09-22T13:39:58.521Z,15.80
2018-09-22T13:42:27.082Z,15.60
2018-09-22T13:44:55.658Z,15.50
2018-09-22T13:47:24.286Z,15.30
2018-09-22T13:49:52.805Z,15.20
2018-09-22T13:52:21.402Z,15.00
2018-09-22T13:54:49.856Z,15.10
2018-09-22T13:57:18.346Z,15.00
2018-09-22T13:59:46.912Z,14.80
2018-09-22T14:02:15.415Z,14.70
2018-09-22T14:04:43.879Z,14.60
2018-09-22T14:07:12.414Z,14.50
2018-09-22T14:09:40.938Z,14.50
2018-09-22T14:12:09.528Z,14.40
2018-09-22T14:14:38.116Z,14.40
2018-09-22T14:17:06.586Z,14.30
2018-09-22T14:19:35.134Z,14.20
2018-09-22T14:22:03.681Z,14.20
2018-09-22T14:24:32.180Z,14.20
2018-09-22T14:27:00.695Z,14.10
2018-09-22T14:29:29.330Z,14.00
2018-09-22T14:31:57.831Z,14.00
2018-09-22T14:34:26.449Z,14.10
2018-09-22T14:36:54.957Z,14.20
2018-09-22T14:39:23.495Z,14.20
2018-09-22T14:41:52.115Z,14.20
2018-09-22T14:44:20.635Z,14.30
2018-09-22T14:46:49.161Z,14.30
2018-09-22T14:49:17.735Z,14.20
2018-09-22T14:51:46.268Z,14.00
2018-09-22T14:54:14.846Z,13.90
2018-09-22T14:56:43.386Z,13.80
2018-09-22T14:59:11.927Z,13.70
2018-09-22T15:01:40.479Z,13.70
2018-09-22T15:04:08.955Z,13.70
2018-09-22T15:06:37.431Z,13.60
2018-09-22T15:09:07.326Z,13.50
2018-09-22T15:11:35.853Z,13.40
2018-09-22T15:14:04.374Z,13.50
2018-09-22T15:16:32.901Z,13.40
2018-09-22T15:19:01.369Z,13.50
2018-09-22T15:21:29.878Z,13.50
2018-09-22T15:23:58.377Z,13.60
2018-09-22T15:26:26.871Z,13.60
2018-09-22T15:28:55.559Z,13.70
2018-09-22T15:31:24.386Z,13.70
2018-09-22T15:33:52.988Z,13.80
2018-09-22T15:36:21.581Z,13.70
2018-09-22T15:38:50.099Z,13.60
2018-09-22T15:41:19.704Z,13.50
2018-09-22T15:43:48.128Z,13.50
2018-09-22T15:46:16.712Z,13.50
2018-09-22T15:48:45.179Z,13.50
2018-09-22T15:51:14.100Z,13.50
2018-09-22T15:53:42.765Z,13.50
2018-09-22T15:56:11.205Z,13.50
2018-09-22T15:58:39.826Z,13.60
2018-09-22T16:01:08.359Z,13.50
2018-09-22T16:03:36.904Z,13.50
2018-09-22T16:06:11.681Z,13.50
2018-09-22T16:08:40.210Z,13.50
2018-09-22T16:11:08.965Z,13.40
2018-09-22T16:13:37.540Z,13.40
2018-09-22T16:16:06.068Z,13.40
2018-09-22T16:18:34.576Z,13.40
2018-09-22T16:21:02.972Z,13.40
2018-09-22T16:23:31.634Z,13.30
2018-09-22T16:26:00.070Z,13.30
2018-09-22T16:28:28.608Z,13.30
2018-09-22T16:30:57.065Z,13.30
2018-09-22T16:33:25.506Z,13.30
2018-09-22T16:35:54.061Z,13.30
2018-09-22T16:38:22.527Z,13.20
2018-09-22T16:40:51.013Z,13.20
2018-09-22T16:43:19.526Z,13.20
2018-09-22T16:45:48.067Z,13.20
2018-09-22T16:48:16.549Z,13.20
2018-09-22T16:50:45.058Z,13.10
2018-09-22T16:53:13.553Z,12.90
2018-09-22T16:55:42.062Z,12.80
2018-09-22T16:58:10.535Z,12.70
2018-09-22T17:00:39.155Z,12.70
2018-09-22T17:03:07.867Z,12.70
2018-09-22T17:05:36.346Z,12.70
2018-09-22T17:08:04.826Z,12.80
2018-09-22T17:10:33.277Z,12.80
2018-09-22T17:13:02.359Z,12.80
2018-09-22T17:15:30.885Z,12.80
2018-09-22T17:17:59.406Z,12.80
2018-09-22T17:20:28.006Z,12.80
2018-09-22T17:22:56.790Z,12.70
2018-09-22T17:25:25.312Z,12.70
2018-09-22T17:27:53.813Z,12.70
2018-09-22T17:30:22.320Z,12.70
2018-09-22T17:32:50.794Z,12.70
2018-09-22T17:35:19.360Z,12.60
2018-09-22T17:37:47.933Z,12.60
2018-09-22T17:40:16.384Z,12.50
2018-09-22T17:42:44.940Z,12.50
2018-09-22T17:45:14.287Z,12.50
2018-09-22T17:47:42.768Z,12.50
2018-09-22T17:50:11.207Z,12.40
2018-09-22T17:52:39.628Z,12.40
2018-09-22T17:55:08.107Z,12.40
2018-09-22T17:57:36.600Z,12.40
2018-09-22T18:00:05.224Z,12.30
2018-09-22T18:02:33.644Z,12.30
2018-09-22T18:05:02.124Z,12.30
2018-09-22T18:07:30.558Z,12.30
2018-09-22T18:09:59.008Z,12.20
2018-09-22T18:12:27.449Z,12.20
2018-09-22T18:14:55.884Z,12.20
2018-09-22T18:17:24.408Z,12.20
2018-09-22T18:19:52.840Z,12.20
2018-09-22T18:22:21.291Z,12.20
2018-09-22T18:24:49.763Z,12.20
2018-09-22T18:27:18.202Z,12.20
2018-09-22T18:29:46.656Z,12.20
2018-09-22T18:32:15.103Z,12.20
2018-09-22T18:34:43.538Z,12.20
2018-09-22T18:37:12.037Z,12.20
2018-09-22T18:39:40.508Z,12.20
2018-09-22T18:42:09.004Z,12.20
2018-09-22T18:44:37.437Z,12.20
2018-09-22T18:47:05.941Z,12.20
2018-09-22T18:49:34.409Z,12.20
2018-09-22T18:52:02.972Z,12.20
2018-09-22T18:54:31.493Z,12.10
2018-09-22T18:56:59.948Z,12.10
2018-09-22T18:59:28.386Z,12.10
2018-09-22T19:01:56.864Z,12.10
2018-09-22T19:04:25.293Z,12.10
2018-09-22T19:06:53.728Z,12.10
2018-09-22T19:09:22.228Z,12.10
2018-09-22T19:11:50.680Z,12.10
2018-09-22T19:15:24.426Z,12.10
2018-09-22T19:18:55.840Z,12.10
2018-09-22T19:21:29.737Z,12.10
2018-09-22T19:24:15.835Z,12.10
2018-09-22T19:26:49.456Z,12.10
2018-09-22T19:29:27.990Z,12.10
2018-09-22T19:32:01.886Z,12.10
2018-09-22T19:34:34.666Z,12.10
2018-09-22T19:37:08.658Z,12.00
2018-09-22T19:39:41.559Z,12.00
2018-09-22T19:42:14.545Z,12.00
2018-09-22T19:45:48.245Z,12.00
2018-09-22T19:48:20.593Z,12.00
2018-09-22T19:50:55.230Z,12.10
2018-09-22T19:53:23.657Z,12.10
2018-09-22T19:55:52.123Z,12.10
2018-09-22T19:58:20.554Z,12.10
2018-09-22T20:00:49.020Z,12.10
2018-09-22T20:03:17.516Z,12.10
2018-09-22T20:05:45.993Z,12.10
2018-09-22T20:08:14.427Z,12.10
2018-09-22T20:10:42.912Z,12.10
2018-09-22T20:13:11.331Z,12.10
2018-09-22T20:15:39.815Z,12.10
2018-09-22T20:18:08.321Z,12.10
2018-09-22T20:20:36.795Z,12.10
2018-09-22T20:23:05.361Z,12.10
2018-09-22T20:25:33.916Z,12.10
2018-09-22T20:28:02.394Z,12.10
2018-09-22T20:30:30.925Z,12.10
2018-09-22T20:32:59.357Z,12.00
2018-09-22T20:35:27.843Z,12.10
2018-09-22T20:37:56.422Z,12.00
2018-09-22T20:40:24.908Z,12.00
2018-09-22T20:42:53.336Z,12.00
2018-09-22T20:45:21.786Z,12.00
2018-09-22T20:47:50.241Z,12.00
2018-09-22T20:50:18.738Z,12.00
2018-09-22T20:52:47.196Z,12.00
2018-09-22T20:55:15.649Z,12.00
2018-09-22T20:57:44.094Z,12.00
2018-09-22T21:00:12.591Z,12.00
2018-09-22T21:02:41.031Z,11.90
2018-09-22T21:05:09.488Z,12.00
2018-09-22T21:07:37.998Z,12.00
2018-09-22T21:10:06.880Z,12.00
2018-09-22T21:12:35.294Z,12.00
2018-09-22T21:15:03.754Z,12.00
2018-09-22T21:17:32.207Z,12.10
2018-09-22T21:20:00.662Z,12.00
2018-09-22T21:22:29.156Z,12.00
2018-09-22T21:24:57.640Z,12.00
2018-09-22T21:27:26.118Z,12.00
2018-09-22T21:29:54.627Z,12.00
2018-09-22T21:32:23.064Z,12.00
2018-09-22T21:34:51.536Z,12.10
2018-09-22T21:37:20.088Z,12.10
2018-09-22T21:39:48.543Z,12.10
2018-09-22T21:42:16.997Z,12.10
2018-09-22T21:44:45.459Z,12.10
2018-09-22T21:47:13.960Z,12.10
2018-09-22T21:49:42.427Z,12.10
2018-09-22T21:52:10.895Z,12.10
2018-09-22T21:54:39.416Z,12.10
2018-09-22T21:57:07.925Z,12.10
2018-09-22T21:59:36.365Z,12.10
2018-09-22T22:02:04.827Z,12.10
2018-09-22T22:04:33.272Z,12.10
2018-09-22T22:07:01.743Z,12.10
2018-09-22T22:09:30.190Z,12.10
2018-09-22T22:11:58.640Z,12.10
2018-09-22T22:14:27.084Z,12.10
2018-09-22T22:16:55.518Z,12.10
2018-09-22T22:19:24.050Z,12.10
2018-09-22T22:21:52.480Z,12.10
2018-09-22T22:24:20.946Z,12.10
2018-09-22T22:26:49.426Z,12.10
2018-09-22T22:29:17.888Z,12.10
2018-09-22T22:31:46.349Z,12.20
2018-09-22T22:34:14.791Z,12.20
2018-09-22T22:36:43.275Z,12.20
2018-09-22T22:39:11.745Z,12.20
2018-09-22T22:41:40.204Z,12.20
2018-09-22T22:44:08.681Z,12.10
2018-09-22T22:46:37.145Z,12.10
2018-09-22T22:49:05.673Z,12.20
2018-09-22T22:51:34.151Z,12.20
2018-09-22T22:54:02.640Z,12.20
2018-09-22T22:56:31.074Z,12.20
2018-09-22T22:58:59.542Z,12.20
2018-09-22T23:01:28.002Z,12.20
2018-09-22T23:03:56.446Z,12.10
2018-09-22T23:06:24.899Z,12.10
2018-09-22T23:08:53.339Z,12.10
2018-09-22T23:11:21.777Z,12.10
2018-09-22T23:13:50.259Z,12.10
2018-09-22T23:16:18.705Z,12.10
2018-09-22T23:18:47.176Z,12.10
2018-09-22T23:21:15.698Z,12.10
2018-09-22T23:23:44.175Z,12.10
2018-09-22T23:26:13.238Z,12.10
2018-09-22T23:28:41.744Z,12.20
2018-09-22T23:31:10.213Z,12.20
2018-09-22T23:33:38.691Z,12.10
2018-09-22T23:36:07.176Z,12.20
2018-09-22T23:38:35.657Z,12.20
2018-09-22T23:41:04.135Z,12.20
2018-09-22T23:43:32.612Z,12.20
2018-09-22T23:46:01.069Z,12.20
2018-09-22T23:48:29.486Z,12.30
2018-09-22T23:50:57.955Z,12.30
2018-09-22T23:53:26.403Z,12.30
2018-09-22T23:55:54.907Z,12.30
2018-09-22T23:58:23.347Z,12.30
